WetterOnline ( https://www.wetteronline.de )

Wetter aktuell Seelow

Aktuelles Wetter: Lindenberg b. Beeskow (104m)

6-stündlich | Neueste Meldungen
Ortszeit Temperatur Wetter
Sa, 23.01. 7:00 3.2° C leichter Regen
Sa, 23.01. 1:00 2.7° C bedeckt
Fr, 22.01. 19:00 5.0° C wolkig
Fr, 22.01. 13:00 7.5° C bedeckt
Fr, 22.01. 7:00 7.1° C leicht bewölkt
Fr, 22.01. 1:00 6.9° C bewölkt
Do, 21.01. 19:00 7.8° C bedeckt
Do, 21.01. 13:00 9.7° C bedeckt
Ortszeit Temperatur Wetter
Sa, 23.01. 8:00 2.9° C leichter Regen
Sa, 23.01. 7:30 3.0° C leichter Regen
Sa, 23.01. 7:20 3.0° C leichter Regen
Sa, 23.01. 7:10 3.2° C leichter Regen
Sa, 23.01. 7:00 3.2° C leichter Regen
Sa, 23.01. 6:50 3.2° C leichter Regen
Sa, 23.01. 6:30 3.2° C wolkenlos
Sa, 23.01. 6:00 2.8° C wolkenlos
Sa, 23.01. 5:30 3.2° C leichter Regen
Sa, 23.01. 5:00 3.0° C leicht bewölkt
Sa, 23.01. 4:30 3.7° C wolkig
Ortszeit Relative Feuchte Sichtweite
Sa, 23.01. 7:00 79% 30 km
Sa, 23.01. 1:00 89% 65 km
Fr, 22.01. 19:00 79% >70 km
Fr, 22.01. 13:00 68% >70 km
Fr, 22.01. 7:00 62% 60 km
Fr, 22.01. 1:00 69% 50 km
Do, 21.01. 19:00 63% 45 km
Do, 21.01. 13:00 53% >70 km
Ortszeit Relative Feuchte Sichtweite
Sa, 23.01. 8:00 82% 16 km
Sa, 23.01. 7:30 81% 40 km
Sa, 23.01. 7:20 81% -
Sa, 23.01. 7:10 79% -
Sa, 23.01. 7:00 79% 30 km
Sa, 23.01. 6:50 79% -
Sa, 23.01. 6:30 80% 35 km
Sa, 23.01. 6:00 84% 30 km
Sa, 23.01. 5:30 81% 40 km
Sa, 23.01. 5:00 84% 40 km
Sa, 23.01. 4:30 79% 45 km
Ortszeit Niederschlagsmenge Niederschlagsart
Sa, 23.01. 7:00 0.1 l/m2 in 12 Std. Regen
Sa, 23.01. 1:00 0.0 l/m2 in 6 Std. -
Fr, 22.01. 19:00 0.1 l/m2 in 12 Std. Regen
Fr, 22.01. 13:00 0.0 l/m2 in 6 Std. -
Fr, 22.01. 7:00 0.1 l/m2 in 12 Std. Regen
Fr, 22.01. 1:00 0.1 l/m2 in 6 Std. Regen
Do, 21.01. 19:00 0.0 l/m2 in 12 Std. -
Do, 21.01. 13:00 0.0 l/m2 in 6 Std. -
Ortszeit Niederschlagsmenge Niederschlagsart
Sa, 23.01. 8:00 0.1 l/m2 in 1 Std. Regen
Sa, 23.01. 7:30 0.1 l/m2 in 1 Std. -
Sa, 23.01. 7:20 keine Meldung -
Sa, 23.01. 7:10 keine Meldung -
Sa, 23.01. 7:00 0.1 l/m2 in 1 Std. Regen
Sa, 23.01. 6:50 keine Meldung -
Sa, 23.01. 6:30 0.1 l/m2 in 1 Std. Schneeregen
Sa, 23.01. 6:00 0.1 l/m2 in 1 Std. Regen
Sa, 23.01. 5:30 0.1 l/m2 in 1 Std. -
Sa, 23.01. 5:00 0.0 l/m2 in 1 Std. -
Sa, 23.01. 4:30 0.0 l/m2 in 1 Std. -
Ortszeit Stärke Spitze Richtung
km/h Bft. km/h Grad Sektor
Sa, 23.01. 7:00 9 2 20 50° NO
Sa, 23.01. 1:00 6 1 19 350° N
Fr, 22.01. 19:00 9 2 24 240° SW
Fr, 22.01. 13:00 13 3 41 260° W
Fr, 22.01. 7:00 20 4 37 180° S
Fr, 22.01. 1:00 13 3 31 150° SO
Do, 21.01. 19:00 14 3 47 200° S
Do, 21.01. 13:00 18 3 47 190° S
Ortszeit Stärke Spitze Richtung
km/h Bft. km/h Grad Sektor
Sa, 23.01. 8:00 7 2 18 10° N
Sa, 23.01. 7:30 7 2 18 50° NO
Sa, 23.01. 7:20 7 2 - 50° NO
Sa, 23.01. 7:10 9 2 - 50° NO
Sa, 23.01. 7:00 9 2 20 50° NO
Sa, 23.01. 6:50 9 2 - 50° NO
Sa, 23.01. 6:30 11 2 18 60° NO
Sa, 23.01. 6:00 7 2 19 30° NO
Sa, 23.01. 5:30 11 2 18 60° NO
Sa, 23.01. 5:00 6 1 17 20° N
Sa, 23.01. 4:30 7 2 18 60° NO
Ortszeit Untergrenze Bedeckung Gattung
total tief tief mittel hoch
Sa, 23.01. 7:00 - 0/8 0/8 - - -
Sa, 23.01. 1:00 1500 m 8/8 8/8 - - -
Fr, 22.01. 19:00 2100 m 6/8 2/8 - - -
Fr, 22.01. 13:00 900 m 8/8 8/8 - - -
Fr, 22.01. 7:00 5700 m 2/8 2/8 - - -
Fr, 22.01. 1:00 1800 m 8/8 7/8 - - -
Do, 21.01. 19:00 1290 m 8/8 8/8 - - -
Do, 21.01. 13:00 3000 m 8/8 8/8 - - -
Ortszeit Bedeckungsgrad in Achtel und Wolkenuntergrenze
Sa, 23.01. 8:00 1(660m)
Sa, 23.01. 7:30 keine Wolken
Sa, 23.01. 7:20 keine Wolken
Sa, 23.01. 7:10 keine Wolken
Sa, 23.01. 7:00 keine Wolken
Sa, 23.01. 6:50 keine Wolken
Sa, 23.01. 6:30 keine Wolken
Sa, 23.01. 6:00 keine Wolken
Sa, 23.01. 5:30 2(1110m)
Sa, 23.01. 5:00 1(1080m) 3(1800m)
Sa, 23.01. 4:30 5(1290m) 4(1380m)
Ortszeit Luftdruck NN (hPa) Tendenz (hPa in 3 Std.)
Sa, 23.01. 7:00 997 - 0,7
Sa, 23.01. 1:00 998 - 0,2
Fr, 22.01. 19:00 997 + 2,2
Fr, 22.01. 13:00 993 + 1,9
Fr, 22.01. 7:00 991 - 2,0
Fr, 22.01. 1:00 995 - 2,5
Do, 21.01. 19:00 998 + 0,3
Do, 21.01. 13:00 998 - 0,3
Ortszeit Luftdruck NN (hPa) Tendenz (hPa in 3 Std.)
Sa, 23.01. 8:00 997 - 0,7
Sa, 23.01. 7:30 997 - 0,6
Sa, 23.01. 7:20 997 keine Meldung
Sa, 23.01. 7:10 997 keine Meldung
Sa, 23.01. 7:00 997 - 0,7
Sa, 23.01. 6:50 997 keine Meldung
Sa, 23.01. 6:30 997 - 0,9
Sa, 23.01. 6:00 997 - 1,0
Sa, 23.01. 5:30 998 - 0,5
Sa, 23.01. 5:00 998 - 0,2
Sa, 23.01. 4:30 997 - 0,3
Ortszeit Schneehöhe (cm)
Sa, 23.01. 7:00 0
Sa, 23.01. 1:00 0
Fr, 22.01. 19:00 0
Fr, 22.01. 13:00 0
Fr, 22.01. 7:00 0
Fr, 22.01. 1:00 0
Do, 21.01. 19:00 0
Do, 21.01. 13:00 0
Ortszeit Schneehöhe (cm)
Sa, 23.01. 8:00 0
Sa, 23.01. 7:30 0
Sa, 23.01. 7:20 0
Sa, 23.01. 7:10 0
Sa, 23.01. 7:00 0
Sa, 23.01. 6:50 0
Sa, 23.01. 6:30 0
Sa, 23.01. 6:00 0
Sa, 23.01. 5:30 0
Sa, 23.01. 5:00 0
Sa, 23.01. 4:30 0
Link zu dieser Seite / Seite empfehlen

Das Wetter in ...